createdAt,value
2019-03-11T00:00:35.660Z,4.37
2019-03-11T00:03:03.081Z,8.00
2019-03-11T00:05:29.860Z,11.23
2019-03-11T00:07:56.677Z,7.83
2019-03-11T00:10:23.497Z,5.20
2019-03-11T00:12:51.193Z,7.77
2019-03-11T00:15:18.012Z,6.10
2019-03-11T00:17:44.828Z,7.47
2019-03-11T00:20:11.608Z,7.23
2019-03-11T00:22:38.421Z,5.08
2019-03-11T00:25:06.245Z,4.42
2019-03-11T00:27:33.024Z,7.93
2019-03-11T00:29:59.845Z,9.43
2019-03-11T00:32:26.662Z,9.93
2019-03-11T00:34:53.436Z,7.90
2019-03-11T00:37:20.279Z,7.87
2019-03-11T00:39:47.062Z,9.28
2019-03-11T00:42:13.882Z,7.07
2019-03-11T00:44:40.658Z,8.90
2019-03-11T00:47:07.477Z,12.43
2019-03-11T00:49:34.293Z,9.77
2019-03-11T00:52:01.077Z,8.73
2019-03-11T00:54:28.237Z,8.90
2019-03-11T00:56:55.013Z,9.93
2019-03-11T00:59:21.856Z,8.18
2019-03-11T01:01:48.640Z,6.30
2019-03-11T01:04:15.461Z,6.97
2019-03-11T01:06:42.248Z,7.05
2019-03-11T01:09:09.070Z,6.22
2019-03-11T01:11:35.884Z,6.85
2019-03-11T01:14:02.677Z,7.35
2019-03-11T01:16:29.500Z,6.95
2019-03-11T01:18:56.301Z,6.15
2019-03-11T01:21:23.125Z,9.08
2019-03-11T01:23:49.945Z,7.62
2019-03-11T01:26:16.725Z,9.05
2019-03-11T01:28:43.554Z,8.73
2019-03-11T01:31:10.336Z,10.90
2019-03-11T01:33:37.188Z,7.47
2019-03-11T01:36:04.017Z,7.40
2019-03-11T01:38:30.801Z,9.15
2019-03-11T01:40:57.617Z,9.08
2019-03-11T01:43:24.419Z,9.60
2019-03-11T01:45:51.234Z,10.50
2019-03-11T01:48:18.009Z,8.28
2019-03-11T01:50:44.836Z,7.08
2019-03-11T01:53:11.613Z,8.30
2019-03-11T01:55:38.475Z,8.65
2019-03-11T01:58:05.293Z,9.98
2019-03-11T02:00:32.072Z,10.82
2019-03-11T02:02:58.892Z,7.58
2019-03-11T02:05:25.712Z,8.83
2019-03-11T02:07:52.893Z,10.58
2019-03-11T02:10:19.720Z,7.92
2019-03-11T02:12:46.538Z,10.50
2019-03-11T02:15:17.626Z,6.03
2019-03-11T02:17:44.488Z,8.15
2019-03-11T02:20:12.834Z,7.20
2019-03-11T02:22:39.617Z,7.87
2019-03-11T02:25:06.440Z,8.18
2019-03-11T02:27:33.256Z,6.73
2019-03-11T02:30:00.042Z,8.05
2019-03-11T02:32:28.715Z,8.25
2019-03-11T02:34:55.697Z,10.40
2019-03-11T02:37:22.586Z,5.85
2019-03-11T02:39:49.405Z,10.40
2019-03-11T02:42:16.226Z,10.98
2019-03-11T02:44:43.012Z,9.15
2019-03-11T02:47:09.823Z,9.10
2019-03-11T02:49:36.641Z,6.08
2019-03-11T02:52:03.417Z,9.38
2019-03-11T02:54:30.261Z,9.80
2019-03-11T02:56:57.082Z,8.33
2019-03-11T02:59:23.870Z,8.53
2019-03-11T03:01:55.258Z,7.40
2019-03-11T03:04:23.883Z,9.63
2019-03-11T03:06:52.682Z,7.40
2019-03-11T03:09:19.497Z,8.55
2019-03-11T03:11:47.283Z,6.65
2019-03-11T03:14:14.098Z,8.23
2019-03-11T03:16:40.876Z,8.68
2019-03-11T03:19:07.710Z,7.60
2019-03-11T03:21:34.533Z,6.97
2019-03-11T03:24:01.341Z,7.35
2019-03-11T03:26:28.156Z,9.13
2019-03-11T03:28:54.945Z,14.80
2019-03-11T03:31:21.774Z,6.25
2019-03-11T03:33:48.602Z,6.65
2019-03-11T03:36:15.374Z,7.15
2019-03-11T03:38:42.193Z,6.58
2019-03-11T03:41:08.976Z,8.53
2019-03-11T03:43:35.803Z,9.50
2019-03-11T03:46:17.359Z,10.43
2019-03-11T03:48:31.269Z,9.70
2019-03-11T03:50:58.092Z,10.95
2019-03-11T03:53:24.937Z,11.00
2019-03-11T03:55:51.761Z,7.85
2019-03-11T03:58:18.596Z,8.00
2019-03-11T04:00:45.381Z,11.95
2019-03-11T04:03:12.198Z,7.80
2019-03-11T04:05:39.012Z,13.43
2019-03-11T04:08:05.801Z,10.90
2019-03-11T04:10:33.283Z,6.40
2019-03-11T04:13:00.251Z,6.62
2019-03-11T04:15:27.025Z,9.10
2019-03-11T04:17:53.849Z,8.28
2019-03-11T04:20:23.678Z,9.95
2019-03-11T04:22:50.445Z,9.80
2019-03-11T04:25:17.275Z,10.53
2019-03-11T04:27:44.182Z,6.07
2019-03-11T04:30:19.252Z,6.67
2019-03-11T04:32:46.076Z,7.47
2019-03-11T04:35:12.848Z,8.03
2019-03-11T04:37:39.679Z,7.75
2019-03-11T04:40:12.100Z,8.03
2019-03-11T04:42:38.931Z,8.85
2019-03-11T04:45:11.096Z,7.12
2019-03-11T04:47:37.875Z,8.30
2019-03-11T04:50:07.801Z,7.03
2019-03-11T04:52:34.584Z,7.10
2019-03-11T04:55:01.396Z,10.63
2019-03-11T04:57:31.856Z,10.93
2019-03-11T04:59:58.674Z,8.28
2019-03-11T05:02:25.488Z,10.58
2019-03-11T05:04:52.316Z,11.53
2019-03-11T05:07:19.097Z,11.35
2019-03-11T05:09:46.109Z,10.20
2019-03-11T05:12:12.904Z,9.55
2019-03-11T05:14:39.686Z,5.63
2019-03-11T05:17:06.510Z,9.23
2019-03-11T05:19:33.334Z,8.18
2019-03-11T05:22:00.116Z,8.83
2019-03-11T05:24:26.928Z,5.35
2019-03-11T05:26:53.774Z,11.88
2019-03-11T05:29:20.548Z,11.15
2019-03-11T05:31:47.369Z,9.33
2019-03-11T05:34:14.196Z,9.50
2019-03-11T05:36:41.873Z,9.85
2019-03-11T05:39:08.684Z,10.15
2019-03-11T05:41:35.516Z,9.10
2019-03-11T05:44:02.296Z,8.63
2019-03-11T05:46:29.117Z,6.30
2019-03-11T05:48:55.937Z,8.58
2019-03-11T05:51:31.126Z,6.87
2019-03-11T05:53:51.341Z,7.80
2019-03-11T05:56:18.124Z,9.08
2019-03-11T05:58:44.942Z,8.50
2019-03-11T06:01:11.765Z,11.30
2019-03-11T06:03:38.596Z,9.03
2019-03-11T06:06:05.365Z,7.45
2019-03-11T06:08:32.692Z,6.25
2019-03-11T06:10:59.465Z,8.50
2019-03-11T06:13:35.653Z,8.75
2019-03-11T06:16:34.739Z,9.10
2019-03-11T06:18:46.520Z,6.22
2019-03-11T06:21:15.146Z,6.22
2019-03-11T06:23:41.928Z,6.55
2019-03-11T06:26:08.750Z,7.72
2019-03-11T06:28:35.524Z,10.30
2019-03-11T06:31:02.361Z,7.83
2019-03-11T06:33:29.201Z,8.53
2019-03-11T06:35:55.952Z,6.65
2019-03-11T06:38:22.772Z,4.65
2019-03-11T06:40:49.557Z,5.00
2019-03-11T06:43:16.377Z,7.03
2019-03-11T06:45:43.158Z,8.05
2019-03-11T06:48:09.976Z,7.20
2019-03-11T06:50:36.789Z,5.45
2019-03-11T06:53:03.589Z,5.85
2019-03-11T06:55:30.404Z,8.10
2019-03-11T06:57:57.225Z,8.13
2019-03-11T07:00:24.037Z,4.83
2019-03-11T07:02:50.824Z,4.70
2019-03-11T07:05:20.332Z,3.05
2019-03-11T07:07:46.264Z,7.10
2019-03-11T07:10:14.353Z,4.60
2019-03-11T07:12:41.169Z,4.50
2019-03-11T07:15:13.346Z,3.02
2019-03-11T07:17:40.160Z,4.28
2019-03-11T07:20:17.196Z,1.90
2019-03-11T07:22:44.013Z,3.02
2019-03-11T07:25:10.841Z,1.87
2019-03-11T07:27:37.624Z,3.45
2019-03-11T07:30:15.793Z,2.20
2019-03-11T07:32:42.581Z,3.33
2019-03-11T07:35:09.596Z,3.15
2019-03-11T07:37:36.420Z,2.22
2019-03-11T07:40:06.513Z,1.17
2019-03-11T07:42:33.320Z,1.50
2019-03-11T07:45:00.096Z,3.60
2019-03-11T07:47:27.002Z,2.42
2019-03-11T07:49:54.511Z,3.60
2019-03-11T07:52:21.337Z,1.67
2019-03-11T07:54:48.143Z,7.75
2019-03-11T07:57:14.935Z,1.82
2019-03-11T07:59:41.792Z,2.87
2019-03-11T08:02:08.613Z,1.40
2019-03-11T08:04:35.389Z,2.37
2019-03-11T08:07:02.211Z,1.57
2019-03-11T08:09:37.189Z,1.10
2019-03-11T08:11:57.616Z,2.12
2019-03-11T08:14:24.404Z,1.90
2019-03-11T08:16:51.225Z,1.60
2019-03-11T08:19:18.012Z,7.80
2019-03-11T08:21:44.829Z,12.33
2019-03-11T08:24:11.617Z,2.20
2019-03-11T08:26:38.449Z,2.02
2019-03-11T08:29:05.224Z,2.33
2019-03-11T08:31:32.041Z,2.22
2019-03-11T08:33:58.829Z,0.90
2019-03-11T08:36:25.655Z,2.20
2019-03-11T08:38:52.430Z,1.10
2019-03-11T08:41:19.251Z,1.92
2019-03-11T08:43:46.068Z,1.10
2019-03-11T08:46:12.888Z,0.80
2019-03-11T08:48:39.673Z,2.60
2019-03-11T08:51:06.498Z,4.85
2019-03-11T08:53:33.281Z,9.40
2019-03-11T08:56:00.101Z,3.02
2019-03-11T08:58:26.912Z,13.22
2019-03-11T09:00:53.732Z,14.10
2019-03-11T09:03:20.607Z,2.52
2019-03-11T09:05:47.440Z,1.50
2019-03-11T09:08:14.229Z,2.90
2019-03-11T09:10:41.037Z,0.70
2019-03-11T09:13:07.824Z,1.70
2019-03-11T09:15:34.639Z,0.70
2019-03-11T09:18:01.458Z,1.10
2019-03-11T09:20:28.240Z,3.00
2019-03-11T09:22:55.056Z,2.10
2019-03-11T09:25:26.181Z,1.40
2019-03-11T09:27:52.970Z,0.90
2019-03-11T09:30:20.790Z,0.80
2019-03-11T09:32:47.561Z,1.87
2019-03-11T09:35:14.378Z,1.40
2019-03-11T09:37:41.184Z,1.67
2019-03-11T09:40:11.267Z,0.90
2019-03-11T09:42:38.084Z,2.47
2019-03-11T09:45:10.333Z,2.60
2019-03-11T09:47:37.149Z,1.25
2019-03-11T09:50:07.284Z,1.73
2019-03-11T09:52:34.076Z,0.80
2019-03-11T09:55:00.900Z,2.70
2019-03-11T09:57:27.674Z,2.67
2019-03-11T09:59:54.532Z,2.50
2019-03-11T10:02:21.352Z,0.60
2019-03-11T10:04:48.133Z,1.10
2019-03-11T10:07:14.949Z,2.40
2019-03-11T10:09:41.741Z,3.98
2019-03-11T10:12:08.562Z,2.70
2019-03-11T10:14:35.348Z,0.90
2019-03-11T10:17:02.165Z,0.90
2019-03-11T10:19:28.946Z,3.65
2019-03-11T10:21:55.777Z,2.95
2019-03-11T10:24:22.557Z,4.10
2019-03-11T10:26:49.386Z,2.98
2019-03-11T10:29:18.063Z,2.60
2019-03-11T10:31:44.883Z,2.60
2019-03-11T10:34:11.707Z,3.45
2019-03-11T10:36:38.632Z,4.80
2019-03-11T10:39:05.986Z,5.50
2019-03-11T10:41:33.033Z,7.97
2019-03-11T10:43:59.977Z,3.60
2019-03-11T10:46:27.127Z,4.20
2019-03-11T10:48:54.071Z,2.60
2019-03-11T10:51:21.015Z,3.55
2019-03-11T10:53:48.062Z,1.90
2019-03-11T10:56:15.006Z,1.35
2019-03-11T10:58:41.848Z,6.07
2019-03-11T11:01:09.795Z,4.37
2019-03-11T11:03:36.974Z,1.20
2019-03-11T11:06:04.012Z,1.80
2019-03-11T11:08:30.956Z,3.27
2019-03-11T11:10:57.901Z,2.33
2019-03-11T11:13:24.844Z,1.98
2019-03-11T11:15:51.994Z,2.33
2019-03-11T11:18:19.040Z,1.72
2019-03-11T11:20:45.984Z,3.35
2019-03-11T11:23:12.928Z,2.58
2019-03-11T11:25:39.872Z,4.60
2019-03-11T11:28:06.922Z,2.70
2019-03-11T11:30:33.864Z,1.90
2019-03-11T11:33:00.811Z,2.08
2019-03-11T11:35:27.649Z,3.53
2019-03-11T11:37:54.594Z,1.80
2019-03-11T11:40:28.401Z,1.43
2019-03-11T11:42:55.413Z,4.10
2019-03-11T11:45:23.344Z,2.98
2019-03-11T11:47:50.181Z,2.75
2019-03-11T11:50:18.563Z,2.77
2019-03-11T11:52:45.548Z,3.00
2019-03-11T11:55:13.576Z,1.67
2019-03-11T11:57:40.388Z,4.37
2019-03-11T12:00:18.409Z,3.52
2019-03-11T12:02:45.320Z,5.30
2019-03-11T12:05:13.504Z,3.00
2019-03-11T12:07:40.327Z,1.60
2019-03-11T12:10:10.705Z,2.02
2019-03-11T12:12:37.579Z,2.70
2019-03-11T12:15:07.745Z,3.00
2019-03-11T12:17:34.540Z,5.00
2019-03-11T12:20:02.822Z,3.77
2019-03-11T12:22:29.600Z,1.92
2019-03-11T12:24:56.427Z,2.58
2019-03-11T12:27:23.209Z,2.25
2019-03-11T12:29:50.028Z,3.30
2019-03-11T12:32:16.811Z,1.90
2019-03-11T12:34:43.628Z,7.00
2019-03-11T12:37:10.408Z,2.70
2019-03-11T12:39:37.346Z,2.15
2019-03-11T12:42:04.205Z,2.42
2019-03-11T12:44:30.999Z,1.95
2019-03-11T12:46:57.812Z,2.10
2019-03-11T12:49:24.626Z,3.85
2019-03-11T12:51:51.481Z,4.00
2019-03-11T12:54:18.335Z,3.40
2019-03-11T12:56:45.150Z,5.10
2019-03-11T12:59:12.025Z,3.70
2019-03-11T13:01:38.853Z,5.28
2019-03-11T13:04:05.681Z,3.10
2019-03-11T13:06:32.460Z,3.05
2019-03-11T13:08:59.473Z,3.17
2019-03-11T13:11:26.288Z,3.23
2019-03-11T13:13:53.074Z,3.70
2019-03-11T13:16:19.917Z,3.40
2019-03-11T13:18:46.701Z,2.87
2019-03-11T13:21:16.724Z,4.20
2019-03-11T13:23:43.512Z,3.30
2019-03-11T13:26:10.328Z,3.30
2019-03-11T13:28:37.152Z,3.35
2019-03-11T13:31:03.940Z,4.00
2019-03-11T13:33:30.763Z,3.15
2019-03-11T13:35:57.552Z,2.70
2019-03-11T13:38:24.373Z,3.55
2019-03-11T13:40:51.200Z,1.70
2019-03-11T13:43:18.489Z,1.50
2019-03-11T13:45:45.309Z,1.10
2019-03-11T13:48:12.092Z,2.50
2019-03-11T13:50:38.981Z,1.20
2019-03-11T13:53:05.805Z,1.60
2019-03-11T13:55:32.644Z,1.65
2019-03-11T13:57:59.462Z,2.47
2019-03-11T14:00:26.283Z,2.22
2019-03-11T14:02:53.105Z,1.60
2019-03-11T14:05:19.921Z,2.75
2019-03-11T14:07:46.756Z,2.12
2019-03-11T14:10:14.359Z,1.55
2019-03-11T14:12:41.144Z,1.70
2019-03-11T14:15:13.161Z,2.52
2019-03-11T14:17:39.944Z,1.50
2019-03-11T14:20:09.569Z,3.45
2019-03-11T14:22:36.370Z,1.67
2019-03-11T14:25:05.134Z,1.20
2019-03-11T14:27:32.069Z,1.40
2019-03-11T14:29:58.907Z,3.05
2019-03-11T14:32:25.693Z,3.87
2019-03-11T14:34:52.513Z,1.40
2019-03-11T14:37:19.333Z,2.00
2019-03-11T14:39:46.107Z,2.10
2019-03-11T14:42:12.942Z,4.17
2019-03-11T14:44:39.728Z,1.20
2019-03-11T14:47:07.650Z,1.90
2019-03-11T14:49:34.428Z,4.70
2019-03-11T14:52:01.385Z,3.90
2019-03-11T14:54:28.164Z,1.50
2019-03-11T14:56:54.939Z,3.70
2019-03-11T14:59:21.777Z,3.75
2019-03-11T15:01:48.598Z,1.80
2019-03-11T15:04:15.413Z,2.05
2019-03-11T15:06:42.234Z,1.70
2019-03-11T15:09:09.013Z,2.12
2019-03-11T15:11:35.833Z,4.08
2019-03-11T15:14:02.757Z,1.97
2019-03-11T15:16:29.541Z,2.62
2019-03-11T15:18:56.372Z,2.30
2019-03-11T15:21:23.188Z,1.50
2019-03-11T15:23:49.977Z,2.50
2019-03-11T15:26:24.671Z,2.00
2019-03-11T15:28:45.416Z,5.10
2019-03-11T15:31:12.228Z,3.40
2019-03-11T15:33:39.061Z,3.67
2019-03-11T15:36:05.871Z,4.05
2019-03-11T15:38:32.658Z,2.77
2019-03-11T15:40:59.681Z,2.10
2019-03-11T15:43:26.500Z,2.30
2019-03-11T15:45:53.293Z,3.00
2019-03-11T15:48:20.113Z,3.72
2019-03-11T15:50:46.933Z,2.58
2019-03-11T15:53:13.718Z,5.58
2019-03-11T15:55:40.534Z,2.40
2019-03-11T15:58:07.326Z,4.30
2019-03-11T16:00:34.137Z,1.23
2019-03-11T16:03:00.994Z,2.15
2019-03-11T16:05:27.785Z,1.80
2019-03-11T16:07:54.617Z,2.73
2019-03-11T16:10:21.406Z,2.92
2019-03-11T16:12:48.233Z,2.85
2019-03-11T16:15:17.216Z,4.05
2019-03-11T16:17:44.249Z,3.15
2019-03-11T16:20:18.549Z,2.85
2019-03-11T16:22:45.371Z,1.52
2019-03-11T16:25:12.396Z,2.12
2019-03-11T16:27:39.182Z,1.45
2019-03-11T16:30:11.983Z,3.17
2019-03-11T16:32:38.770Z,3.15
2019-03-11T16:35:06.596Z,1.90
2019-03-11T16:37:33.416Z,2.20
2019-03-11T16:40:00.376Z,3.65
2019-03-11T16:42:27.313Z,3.60
2019-03-11T16:44:54.195Z,2.67
2019-03-11T16:47:21.017Z,2.90
2019-03-11T16:49:47.801Z,6.17
2019-03-11T16:52:14.623Z,2.52
2019-03-11T16:54:41.446Z,3.47
2019-03-11T16:57:08.269Z,5.50
2019-03-11T16:59:35.087Z,2.80
2019-03-11T17:02:02.053Z,4.65
2019-03-11T17:04:28.837Z,6.53
2019-03-11T17:06:55.626Z,4.60
2019-03-11T17:09:22.446Z,4.20
2019-03-11T17:11:49.276Z,1.75
2019-03-11T17:14:16.055Z,3.25
2019-03-11T17:16:42.877Z,3.92
2019-03-11T17:19:09.721Z,3.57
2019-03-11T17:21:36.501Z,2.83
2019-03-11T17:24:03.592Z,3.10
2019-03-11T17:26:30.476Z,3.92
2019-03-11T17:28:57.374Z,1.62
2019-03-11T17:31:24.303Z,2.02
2019-03-11T17:33:51.232Z,3.65
2019-03-11T17:36:18.133Z,2.85
2019-03-11T17:38:45.061Z,3.90
2019-03-11T17:41:12.417Z,3.50
2019-03-11T17:43:39.396Z,3.92
2019-03-11T17:46:07.112Z,3.05
2019-03-11T17:48:34.000Z,2.67
2019-03-11T17:51:00.944Z,4.30
2019-03-11T17:53:27.909Z,3.00
2019-03-11T17:55:54.865Z,3.95
2019-03-11T17:58:22.119Z,4.60
2019-03-11T18:00:55.453Z,4.20
2019-03-11T18:03:18.999Z,2.72
2019-03-11T18:05:46.242Z,4.23
2019-03-11T18:08:13.001Z,4.33
2019-03-11T18:10:39.845Z,4.10
2019-03-11T18:13:06.633Z,5.10
2019-03-11T18:15:33.405Z,3.63
2019-03-11T18:18:00.225Z,2.75
2019-03-11T18:20:27.143Z,1.98
2019-03-11T18:22:54.040Z,2.12
2019-03-11T18:25:21.101Z,3.92
2019-03-11T18:27:48.104Z,3.02
2019-03-11T18:30:26.786Z,3.30
2019-03-11T18:32:53.885Z,2.70
2019-03-11T18:35:20.816Z,2.47
2019-03-11T18:37:47.994Z,3.40
2019-03-11T18:40:16.249Z,3.35
2019-03-11T18:42:43.386Z,3.40
2019-03-11T18:45:12.070Z,2.50
2019-03-11T18:47:38.841Z,4.28
2019-03-11T18:50:14.354Z,3.75
2019-03-11T18:52:41.165Z,3.60
2019-03-11T18:55:09.771Z,3.93
2019-03-11T18:57:36.998Z,3.42
2019-03-11T19:00:10.512Z,2.40
2019-03-11T19:02:37.296Z,3.22
2019-03-11T19:05:06.772Z,2.47
2019-03-11T19:07:33.585Z,2.37
2019-03-11T19:10:00.458Z,2.47
2019-03-11T19:12:27.295Z,2.60
2019-03-11T19:14:54.102Z,3.05
2019-03-11T19:17:20.893Z,2.08
2019-03-11T19:19:47.675Z,3.15
2019-03-11T19:22:14.492Z,2.13
2019-03-11T19:24:41.309Z,3.55
2019-03-11T19:27:08.111Z,3.75
2019-03-11T19:29:34.928Z,3.77
2019-03-11T19:32:02.927Z,1.80
2019-03-11T19:34:29.709Z,5.22
2019-03-11T19:36:56.525Z,3.67
2019-03-11T19:39:24.641Z,2.72
2019-03-11T19:41:51.720Z,3.08
2019-03-11T19:44:18.507Z,2.95
2019-03-11T19:46:45.270Z,2.83
2019-03-11T19:49:12.393Z,2.10
2019-03-11T19:51:39.181Z,2.58
2019-03-11T19:54:06.099Z,2.62
2019-03-11T19:56:33.031Z,4.12
2019-03-11T19:58:59.902Z,3.20
2019-03-11T20:01:28.148Z,3.47
2019-03-11T20:03:55.009Z,3.80
2019-03-11T20:06:21.834Z,3.20
2019-03-11T20:08:48.736Z,2.02
2019-03-11T20:11:15.597Z,1.67
2019-03-11T20:13:42.432Z,2.65
2019-03-11T20:16:09.321Z,3.45
2019-03-11T20:18:36.537Z,2.45
2019-03-11T20:21:03.522Z,4.42
2019-03-11T20:23:30.389Z,3.50
2019-03-11T20:25:57.269Z,3.20
2019-03-11T20:28:24.800Z,3.20
2019-03-11T20:30:51.593Z,2.90
2019-03-11T20:33:18.640Z,2.37
2019-03-11T20:35:45.512Z,3.33
2019-03-11T20:38:12.409Z,2.27
2019-03-11T20:40:40.814Z,3.92
2019-03-11T20:43:09.505Z,4.37
2019-03-11T20:45:36.512Z,2.25
2019-03-11T20:48:03.560Z,3.50
2019-03-11T20:50:41.492Z,3.85
2019-03-11T20:52:58.993Z,2.83
2019-03-11T20:55:25.812Z,2.90
2019-03-11T20:57:52.636Z,3.52
2019-03-11T21:00:23.264Z,1.85
2019-03-11T21:02:50.314Z,2.25
2019-03-11T21:05:23.659Z,2.10
2019-03-11T21:07:50.539Z,4.72
2019-03-11T21:10:19.546Z,4.33
2019-03-11T21:12:46.685Z,2.12
2019-03-11T21:15:14.846Z,3.20
2019-03-11T21:17:41.764Z,3.40
2019-03-11T21:20:13.607Z,3.60
2019-03-11T21:22:39.589Z,3.90
2019-03-11T21:25:11.751Z,2.00
2019-03-11T21:27:38.737Z,3.90
2019-03-11T21:30:09.160Z,3.45
2019-03-11T21:32:35.995Z,2.50
2019-03-11T21:35:04.133Z,2.75
2019-03-11T21:37:31.152Z,2.10
2019-03-11T21:39:58.166Z,5.42
2019-03-11T21:42:25.013Z,3.10
2019-03-11T21:44:52.140Z,2.75
2019-03-11T21:47:19.105Z,2.50
2019-03-11T21:49:45.962Z,4.05
2019-03-11T21:52:12.833Z,3.10
2019-03-11T21:54:39.666Z,1.40
2019-03-11T21:57:06.451Z,4.10
2019-03-11T21:59:33.385Z,2.45
2019-03-11T22:02:00.445Z,3.20
2019-03-11T22:04:27.260Z,2.55
2019-03-11T22:06:54.077Z,4.22
2019-03-11T22:09:20.885Z,3.67
2019-03-11T22:11:47.668Z,2.83
2019-03-11T22:14:14.485Z,3.00
2019-03-11T22:16:41.276Z,4.10
2019-03-11T22:19:08.093Z,3.70
2019-03-11T22:21:34.872Z,3.20
2019-03-11T22:24:01.666Z,3.50
2019-03-11T22:26:28.484Z,2.72
2019-03-11T22:28:55.271Z,2.72
2019-03-11T22:31:22.084Z,1.60
2019-03-11T22:33:48.901Z,2.20
2019-03-11T22:36:15.688Z,4.35
2019-03-11T22:38:42.506Z,3.47
2019-03-11T22:41:09.285Z,3.62
2019-03-11T22:43:36.104Z,3.67
2019-03-11T22:46:02.923Z,3.58
2019-03-11T22:48:29.715Z,4.27
2019-03-11T22:50:56.632Z,2.60
2019-03-11T22:53:23.421Z,2.77
2019-03-11T22:55:50.240Z,4.37
2019-03-11T22:58:17.069Z,2.10
2019-03-11T23:00:59.408Z,3.58
2019-03-11T23:03:26.525Z,2.92
2019-03-11T23:05:57.965Z,3.87
2019-03-11T23:08:22.641Z,3.42
2019-03-11T23:10:49.438Z,2.45
2019-03-11T23:13:16.240Z,2.45
2019-03-11T23:15:43.021Z,2.77
2019-03-11T23:18:09.845Z,3.65
2019-03-11T23:20:36.629Z,2.45
2019-03-11T23:23:03.448Z,2.83
2019-03-11T23:25:30.242Z,2.72
2019-03-11T23:27:57.060Z,2.20
2019-03-11T23:30:23.850Z,2.67
2019-03-11T23:32:50.676Z,3.37
2019-03-11T23:35:17.498Z,2.62
2019-03-11T23:37:44.285Z,2.00
2019-03-11T23:40:11.119Z,3.58
2019-03-11T23:42:37.915Z,3.00
2019-03-11T23:45:06.938Z,3.33
2019-03-11T23:47:33.730Z,3.40
2019-03-11T23:50:00.658Z,2.75
2019-03-11T23:52:27.510Z,3.70
2019-03-11T23:54:54.294Z,2.40
2019-03-11T23:57:21.122Z,4.97
2019-03-11T23:59:47.940Z,3.87
